createdAt,value
2022-12-20T00:00:52.902Z,2.75
2022-12-20T00:03:19.868Z,2.75
2022-12-20T00:05:46.916Z,2.73
2022-12-20T00:08:13.650Z,2.74
2022-12-20T00:10:42.853Z,2.73
2022-12-20T00:13:10.514Z,2.73
2022-12-20T00:15:37.387Z,2.72
2022-12-20T00:18:04.695Z,2.72
2022-12-20T00:20:31.630Z,2.69
2022-12-20T00:22:58.082Z,2.69
2022-12-20T00:25:24.584Z,2.69
2022-12-20T00:27:51.188Z,2.70
2022-12-20T00:30:18.314Z,2.70
2022-12-20T00:32:45.747Z,2.68
2022-12-20T00:35:14.169Z,2.71
2022-12-20T00:37:40.659Z,2.71
2022-12-20T00:40:07.967Z,2.72
2022-12-20T00:42:34.553Z,2.71
2022-12-20T00:45:01.078Z,2.73
2022-12-20T00:47:27.671Z,2.74
2022-12-20T00:49:54.399Z,2.76
2022-12-20T00:52:20.872Z,2.77
2022-12-20T00:54:47.452Z,2.80
2022-12-20T00:57:13.976Z,2.82
2022-12-20T00:59:40.580Z,2.84
2022-12-20T01:02:07.480Z,2.86
2022-12-20T01:04:34.247Z,2.88
2022-12-20T01:07:00.721Z,2.90
2022-12-20T01:09:27.184Z,2.92
2022-12-20T01:11:53.827Z,2.94
2022-12-20T01:14:20.468Z,2.95
2022-12-20T01:16:47.770Z,2.97
2022-12-20T01:19:17.297Z,2.99
2022-12-20T01:21:44.169Z,3.00
2022-12-20T01:24:12.642Z,3.03
2022-12-20T01:26:39.242Z,3.04
2022-12-20T01:29:05.983Z,3.05
2022-12-20T01:31:32.750Z,3.08
2022-12-20T01:33:59.932Z,3.08
2022-12-20T01:36:29.182Z,3.10
2022-12-20T01:39:01.699Z,3.12
2022-12-20T01:41:30.133Z,3.14
2022-12-20T01:43:58.630Z,3.16
2022-12-20T01:46:28.393Z,3.16
2022-12-20T01:49:14.493Z,3.18
2022-12-20T01:51:44.914Z,3.19
2022-12-20T01:54:17.071Z,3.21
2022-12-20T01:56:49.625Z,3.21
2022-12-20T01:59:16.962Z,3.20
2022-12-20T02:01:44.755Z,3.20
2022-12-20T02:04:11.728Z,3.20
2022-12-20T02:06:38.393Z,3.19
2022-12-20T02:09:06.828Z,3.21
2022-12-20T02:11:42.475Z,3.15
2022-12-20T02:14:36.219Z,3.19
2022-12-20T02:17:17.619Z,3.21
2022-12-20T02:20:16.131Z,3.21
2022-12-20T02:22:57.338Z,3.24
2022-12-20T02:26:00.918Z,3.23
2022-12-20T02:28:42.690Z,3.23
2022-12-20T02:31:15.083Z,3.26
2022-12-20T02:33:46.324Z,3.26
2022-12-20T02:36:15.033Z,3.29
2022-12-20T02:38:41.865Z,3.29
2022-12-20T02:41:11.401Z,3.29
2022-12-20T02:43:42.293Z,3.32
2022-12-20T02:46:11.802Z,3.33
2022-12-20T02:48:40.492Z,3.34
2022-12-20T02:51:10.102Z,3.34
2022-12-20T02:53:38.071Z,3.35
2022-12-20T02:56:17.297Z,3.34
2022-12-20T02:58:52.204Z,3.34
2022-12-20T03:01:27.092Z,3.36
2022-12-20T03:03:55.065Z,3.37
2022-12-20T03:06:21.703Z,3.37
2022-12-20T03:08:48.319Z,3.38
2022-12-20T03:11:15.161Z,3.37
2022-12-20T03:13:42.022Z,3.38
2022-12-20T03:16:09.616Z,3.38
2022-12-20T03:18:37.191Z,3.32
2022-12-20T03:21:04.398Z,3.36
2022-12-20T03:23:31.200Z,3.36
2022-12-20T03:25:57.928Z,3.35
2022-12-20T03:28:31.604Z,3.35
2022-12-20T03:30:58.196Z,3.34
2022-12-20T03:33:25.151Z,3.34
2022-12-20T03:35:51.859Z,3.33
2022-12-20T03:38:19.039Z,3.33
2022-12-20T03:40:45.698Z,3.33
2022-12-20T03:43:15.648Z,3.35
2022-12-20T03:45:42.293Z,3.34
2022-12-20T03:48:09.033Z,3.34
2022-12-20T03:50:35.585Z,3.34
2022-12-20T03:53:02.400Z,3.33
2022-12-20T03:55:29.167Z,3.34
2022-12-20T03:57:55.779Z,3.33
2022-12-20T04:00:30.144Z,3.34
2022-12-20T04:03:13.027Z,3.34
2022-12-20T04:05:39.704Z,3.34
2022-12-20T04:08:06.388Z,3.34
2022-12-20T04:10:33.002Z,3.32
2022-12-20T04:12:59.641Z,3.33
2022-12-20T04:15:26.155Z,3.34
2022-12-20T04:17:53.144Z,3.34
2022-12-20T04:20:19.993Z,3.34
2022-12-20T04:23:04.514Z,3.35
2022-12-20T04:25:31.099Z,3.34
2022-12-20T04:27:57.854Z,3.38
2022-12-20T04:30:24.319Z,3.38
2022-12-20T04:32:51.115Z,3.38
2022-12-20T04:35:17.893Z,3.40
2022-12-20T04:37:45.742Z,3.41
2022-12-20T04:40:14.362Z,3.42
2022-12-20T04:42:50.416Z,3.42
2022-12-20T04:45:18.080Z,3.44
2022-12-20T04:47:48.349Z,3.46
2022-12-20T04:50:18.191Z,3.48
2022-12-20T04:52:48.046Z,3.48
2022-12-20T04:55:15.829Z,3.47
2022-12-20T04:57:42.470Z,3.49
2022-12-20T05:00:10.288Z,3.48
2022-12-20T05:02:42.754Z,3.48
2022-12-20T05:05:13.105Z,3.49
2022-12-20T05:07:46.989Z,3.49
2022-12-20T05:10:14.178Z,3.48
2022-12-20T05:12:40.796Z,3.49
2022-12-20T05:15:12.552Z,3.49
2022-12-20T05:17:39.331Z,3.51
2022-12-20T05:20:07.435Z,3.51
2022-12-20T05:22:34.067Z,3.52
2022-12-20T05:25:06.181Z,3.54
2022-12-20T05:27:37.143Z,3.54
2022-12-20T05:30:04.682Z,3.55
2022-12-20T05:32:32.108Z,3.56
2022-12-20T05:34:58.757Z,3.56
2022-12-20T05:37:25.376Z,3.56
2022-12-20T05:39:52.205Z,3.58
2022-12-20T05:42:22.352Z,3.58
2022-12-20T05:44:51.721Z,3.61
2022-12-20T05:47:20.115Z,3.63
2022-12-20T05:49:47.360Z,3.62
2022-12-20T05:52:13.953Z,3.66
2022-12-20T05:54:41.688Z,3.68
2022-12-20T05:57:12.413Z,3.68
2022-12-20T05:59:40.853Z,3.70
2022-12-20T06:02:15.018Z,3.70
2022-12-20T06:04:42.420Z,3.63
2022-12-20T06:07:15.434Z,3.71
2022-12-20T06:09:45.297Z,3.72
2022-12-20T06:12:15.442Z,3.71
2022-12-20T06:14:42.695Z,3.70
2022-12-20T06:17:11.596Z,3.68
2022-12-20T06:19:38.222Z,3.66
2022-12-20T06:22:04.772Z,3.65
2022-12-20T06:24:47.974Z,3.55
2022-12-20T06:27:16.089Z,3.58
2022-12-20T06:29:43.027Z,3.57
2022-12-20T06:32:11.299Z,3.53
2022-12-20T06:34:38.908Z,3.51
2022-12-20T06:37:05.617Z,3.49
2022-12-20T06:39:34.411Z,3.49
2022-12-20T06:42:05.049Z,3.47
2022-12-20T06:44:33.844Z,3.49
2022-12-20T06:47:00.364Z,3.50
2022-12-20T06:49:26.914Z,3.50
2022-12-20T06:51:53.547Z,3.53
2022-12-20T06:54:25.998Z,3.55
2022-12-20T06:56:52.695Z,3.56
2022-12-20T06:59:20.960Z,3.58
2022-12-20T07:01:47.660Z,3.60
2022-12-20T07:04:14.357Z,3.60
2022-12-20T07:06:40.883Z,3.63
2022-12-20T07:09:07.508Z,3.64
2022-12-20T07:11:34.146Z,3.65
2022-12-20T07:14:00.715Z,3.68
2022-12-20T07:16:27.273Z,3.70
2022-12-20T07:18:54.321Z,3.72
2022-12-20T07:21:21.399Z,3.75
2022-12-20T07:23:48.110Z,3.75
2022-12-20T07:26:15.732Z,3.78
2022-12-20T07:28:42.981Z,3.79
2022-12-20T07:31:09.508Z,3.81
2022-12-20T07:33:36.059Z,3.83
2022-12-20T07:36:09.606Z,3.86
2022-12-20T07:38:36.299Z,3.88
2022-12-20T07:41:14.774Z,3.89
2022-12-20T07:43:42.168Z,3.93
2022-12-20T07:46:10.301Z,3.98
2022-12-20T07:48:37.257Z,4.04
2022-12-20T07:51:34.313Z,4.08
2022-12-20T07:54:09.433Z,4.15
2022-12-20T07:56:41.414Z,4.21
2022-12-20T07:59:11.409Z,4.24
2022-12-20T08:01:38.442Z,4.28
2022-12-20T08:04:15.750Z,4.30
2022-12-20T08:06:42.935Z,4.35
2022-12-20T08:09:12.312Z,4.38
2022-12-20T08:11:41.111Z,4.41
2022-12-20T08:14:07.761Z,4.45
2022-12-20T08:16:34.852Z,4.48
2022-12-20T08:19:01.337Z,4.53
2022-12-20T08:21:28.095Z,4.58
2022-12-20T08:23:57.591Z,4.62
2022-12-20T08:26:24.139Z,4.67
2022-12-20T08:28:50.925Z,4.72
2022-12-20T08:31:17.587Z,4.80
2022-12-20T08:33:44.288Z,4.86
2022-12-20T08:36:12.677Z,4.90
2022-12-20T08:38:40.106Z,4.94
2022-12-20T08:41:12.222Z,4.97
2022-12-20T08:43:39.673Z,5.02
2022-12-20T08:46:07.382Z,5.05
2022-12-20T08:48:34.209Z,5.07
2022-12-20T08:51:03.617Z,5.07
2022-12-20T08:53:30.991Z,5.11
2022-12-20T08:56:09.231Z,5.08
2022-12-20T08:58:36.447Z,5.13
2022-12-20T09:01:06.835Z,5.14
2022-12-20T09:03:35.543Z,5.17
2022-12-20T09:06:05.821Z,5.21
2022-12-20T09:08:36.946Z,5.26
2022-12-20T09:11:08.908Z,5.32
2022-12-20T09:13:43.165Z,5.40
2022-12-20T09:16:11.986Z,5.47
2022-12-20T09:18:38.852Z,5.54
2022-12-20T09:21:09.267Z,5.59
2022-12-20T09:23:37.320Z,5.68
2022-12-20T09:26:05.923Z,5.74
2022-12-20T09:28:33.789Z,5.80
2022-12-20T09:31:01.478Z,5.84
2022-12-20T09:33:29.387Z,5.89
2022-12-20T09:35:56.137Z,5.93
2022-12-20T09:38:22.683Z,5.99
2022-12-20T09:40:53.449Z,6.04
2022-12-20T09:43:21.456Z,6.10
2022-12-20T09:45:52.838Z,6.11
2022-12-20T09:48:23.144Z,6.15
2022-12-20T09:50:55.437Z,6.18
2022-12-20T09:53:32.762Z,6.21
2022-12-20T09:56:06.202Z,6.23
2022-12-20T09:58:44.584Z,6.25
2022-12-20T10:01:24.959Z,6.28
2022-12-20T10:03:53.828Z,6.32
2022-12-20T10:06:23.152Z,6.35
2022-12-20T10:09:00.545Z,6.39
2022-12-20T10:11:36.629Z,6.43
2022-12-20T10:14:27.717Z,6.45
2022-12-20T10:17:02.022Z,6.50
2022-12-20T10:20:10.933Z,6.53
2022-12-20T10:23:09.380Z,6.58
2022-12-20T10:25:36.160Z,6.63
2022-12-20T10:28:11.061Z,6.64
2022-12-20T10:30:37.712Z,6.68
2022-12-20T10:33:04.549Z,6.72
2022-12-20T10:35:37.140Z,6.76
2022-12-20T10:38:08.450Z,6.81
2022-12-20T10:41:18.559Z,6.88
2022-12-20T10:43:26.678Z,6.95
2022-12-20T10:46:08.604Z,7.01
2022-12-20T10:48:38.166Z,7.10
2022-12-20T10:51:16.520Z,7.15
2022-12-20T10:54:03.872Z,7.20
2022-12-20T10:56:35.521Z,7.24
2022-12-20T10:59:16.319Z,7.30
2022-12-20T11:01:47.902Z,7.33
2022-12-20T11:04:34.476Z,7.34
2022-12-20T11:07:03.380Z,7.36
2022-12-20T11:09:36.203Z,7.36
2022-12-20T11:12:02.970Z,7.38
2022-12-20T11:14:38.398Z,7.38
2022-12-20T11:17:37.534Z,7.37
2022-12-20T11:20:27.965Z,7.36
2022-12-20T11:23:11.524Z,7.39
2022-12-20T11:25:50.336Z,7.39
2022-12-20T11:28:41.023Z,7.39
2022-12-20T11:31:16.823Z,7.41
2022-12-20T11:33:55.493Z,7.39
2022-12-20T11:36:35.366Z,7.42
2022-12-20T11:39:15.571Z,7.43
2022-12-20T11:41:58.987Z,7.45
2022-12-20T11:45:05.168Z,7.44
2022-12-20T11:47:56.080Z,7.48
2022-12-20T11:50:45.426Z,7.48
2022-12-20T11:53:30.628Z,7.50
2022-12-20T11:56:02.082Z,7.52
2022-12-20T11:58:56.174Z,7.52
2022-12-20T12:01:29.352Z,7.55
2022-12-20T12:04:17.004Z,7.57
2022-12-20T12:07:09.873Z,7.57
2022-12-20T12:09:41.590Z,7.60
2022-12-20T12:12:20.078Z,7.61
2022-12-20T12:14:53.400Z,7.61
2022-12-20T12:17:25.819Z,7.62
2022-12-20T12:19:56.505Z,7.61
2022-12-20T12:22:33.147Z,7.58
2022-12-20T12:25:05.332Z,7.56
2022-12-20T12:27:32.876Z,7.54
2022-12-20T12:29:59.469Z,7.50
2022-12-20T12:32:44.431Z,7.44
2022-12-20T12:35:29.953Z,7.41
2022-12-20T12:38:15.163Z,7.32
2022-12-20T12:41:15.215Z,7.25
2022-12-20T12:43:45.049Z,7.20
2022-12-20T12:46:19.731Z,7.18
2022-12-20T12:49:00.915Z,7.14
2022-12-20T12:51:32.829Z,7.11
2022-12-20T12:54:16.544Z,7.07
2022-12-20T12:56:47.335Z,7.05
2022-12-20T12:59:32.976Z,7.00
2022-12-20T13:02:02.552Z,6.99
2022-12-20T13:04:31.782Z,6.96
2022-12-20T13:06:59.775Z,6.95
2022-12-20T13:09:26.224Z,6.92
2022-12-20T13:12:00.485Z,6.87
2022-12-20T13:14:28.790Z,6.85
2022-12-20T13:17:24.072Z,6.82
2022-12-20T13:19:55.180Z,6.79
2022-12-20T13:22:24.180Z,6.77
2022-12-20T13:24:59.655Z,6.73
2022-12-20T13:27:29.711Z,6.72
2022-12-20T13:29:58.404Z,6.72
2022-12-20T13:32:46.577Z,6.69
2022-12-20T13:35:24.980Z,6.67
2022-12-20T13:37:55.668Z,6.66
2022-12-20T13:40:35.316Z,6.65
2022-12-20T13:43:16.853Z,6.63
2022-12-20T13:45:47.416Z,6.62
2022-12-20T13:48:22.153Z,6.61
2022-12-20T13:50:56.627Z,6.59
2022-12-20T13:53:25.874Z,6.59
2022-12-20T13:55:53.344Z,6.58
2022-12-20T13:58:24.778Z,6.56
2022-12-20T14:00:52.776Z,6.56
2022-12-20T14:03:23.563Z,6.54
2022-12-20T14:05:56.397Z,6.56
2022-12-20T14:08:26.889Z,6.50
2022-12-20T14:10:53.540Z,6.52
2022-12-20T14:13:26.648Z,6.51
2022-12-20T14:15:54.210Z,6.52
2022-12-20T14:18:23.384Z,6.50
2022-12-20T14:20:59.189Z,6.50
2022-12-20T14:23:49.919Z,6.49
2022-12-20T14:26:19.992Z,6.53
2022-12-20T14:28:56.414Z,6.56
2022-12-20T14:31:22.923Z,6.61
2022-12-20T14:33:49.729Z,6.63
2022-12-20T14:36:16.235Z,6.68
2022-12-20T14:38:45.181Z,6.71
2022-12-20T14:41:39.608Z,6.69
2022-12-20T14:44:21.939Z,6.73
2022-12-20T14:46:54.041Z,6.75
2022-12-20T14:49:27.151Z,6.75
2022-12-20T14:52:06.356Z,6.74
2022-12-20T14:55:06.396Z,6.71
2022-12-20T14:57:22.729Z,6.71
2022-12-20T15:00:13.694Z,6.69
2022-12-20T15:02:51.927Z,6.71
2022-12-20T15:05:33.753Z,6.68
2022-12-20T15:08:33.067Z,6.67
2022-12-20T15:11:08.321Z,6.68
2022-12-20T15:13:43.242Z,6.65
2022-12-20T15:16:22.444Z,6.66
2022-12-20T15:18:53.980Z,6.68
2022-12-20T15:21:23.416Z,6.68
2022-12-20T15:23:52.212Z,6.68
2022-12-20T15:26:21.160Z,6.65
2022-12-20T15:28:48.203Z,6.62
2022-12-20T15:31:17.451Z,6.57
2022-12-20T15:33:45.220Z,6.54
2022-12-20T15:36:20.285Z,6.51
2022-12-20T15:39:11.352Z,6.51
2022-12-20T15:41:34.470Z,6.48
2022-12-20T15:44:07.383Z,6.47
2022-12-20T15:46:33.952Z,6.48
2022-12-20T15:49:00.460Z,6.48
2022-12-20T15:51:31.453Z,6.46
2022-12-20T15:53:59.285Z,6.47
2022-12-20T15:56:27.618Z,6.48
2022-12-20T15:58:54.963Z,6.48
2022-12-20T16:01:25.884Z,6.48
2022-12-20T16:03:52.828Z,6.47
2022-12-20T16:06:19.431Z,6.44
2022-12-20T16:08:45.994Z,6.46
2022-12-20T16:11:24.652Z,6.46
2022-12-20T16:13:51.586Z,6.46
2022-12-20T16:16:20.688Z,6.42
2022-12-20T16:18:47.606Z,6.43
2022-12-20T16:21:23.227Z,6.41
2022-12-20T16:23:50.807Z,6.42
2022-12-20T16:26:19.611Z,6.42
2022-12-20T16:28:46.964Z,6.41
2022-12-20T16:31:52.162Z,6.40
2022-12-20T16:34:19.326Z,6.38
2022-12-20T16:36:46.676Z,6.39
2022-12-20T16:39:13.233Z,6.37
2022-12-20T16:41:41.282Z,6.34
2022-12-20T16:44:13.630Z,6.33
2022-12-20T16:46:40.180Z,6.37
2022-12-20T16:49:06.804Z,6.37
2022-12-20T16:51:47.467Z,6.35
2022-12-20T16:54:19.705Z,6.37
2022-12-20T16:56:47.749Z,6.37
2022-12-20T16:59:20.695Z,6.34
2022-12-20T17:01:50.849Z,6.34
2022-12-20T17:04:19.268Z,6.33
2022-12-20T17:06:45.752Z,6.29
2022-12-20T17:11:53.156Z,6.28
2022-12-20T17:14:22.460Z,6.28
2022-12-20T17:16:49.419Z,6.30
2022-12-20T17:19:16.314Z,6.29
2022-12-20T17:24:26.712Z,6.30
2022-12-20T17:26:53.308Z,6.31
2022-12-20T17:29:19.819Z,6.31
2022-12-20T17:31:46.784Z,6.29
2022-12-20T17:34:17.697Z,6.27
2022-12-20T17:36:44.939Z,6.27
2022-12-20T17:39:11.700Z,6.26
2022-12-20T17:41:38.475Z,6.26
2022-12-20T17:44:06.050Z,6.25
2022-12-20T17:46:32.826Z,6.26
2022-12-20T17:48:59.372Z,6.25
2022-12-20T17:51:29.411Z,6.25
2022-12-20T17:53:57.895Z,6.25
2022-12-20T17:56:26.810Z,6.25
2022-12-20T17:58:54.640Z,6.25
2022-12-20T18:01:30.286Z,6.24
2022-12-20T18:04:04.658Z,6.23
2022-12-20T18:06:33.340Z,6.23
2022-12-20T18:09:00.205Z,6.20
2022-12-20T18:11:28.806Z,6.18
2022-12-20T18:13:59.989Z,6.13
2022-12-20T18:16:29.376Z,6.11
2022-12-20T18:18:56.993Z,6.09
2022-12-20T18:21:25.252Z,6.07
2022-12-20T18:23:52.870Z,6.06
2022-12-20T18:26:25.290Z,6.02
2022-12-20T18:28:55.624Z,6.02
2022-12-20T18:31:24.727Z,6.01
2022-12-20T18:33:57.449Z,6.00
2022-12-20T18:36:33.330Z,5.97
2022-12-20T18:39:01.219Z,5.97
2022-12-20T18:41:29.747Z,5.95
2022-12-20T18:43:59.036Z,5.95
2022-12-20T18:46:25.636Z,5.94
2022-12-20T18:48:53.826Z,5.94
2022-12-20T18:51:22.655Z,5.89
2022-12-20T18:53:50.758Z,5.90
2022-12-20T18:56:18.734Z,5.77
2022-12-20T18:58:46.018Z,5.79
2022-12-20T19:01:25.070Z,5.75
2022-12-20T19:03:52.478Z,5.71
2022-12-20T19:06:19.920Z,5.65
2022-12-20T19:08:46.870Z,5.58
2022-12-20T19:11:15.961Z,5.53
2022-12-20T19:13:43.551Z,5.49
2022-12-20T19:16:18.954Z,5.40
2022-12-20T19:18:46.092Z,5.36
2022-12-20T19:21:16.308Z,5.27
2022-12-20T19:23:45.113Z,5.23
2022-12-20T19:26:13.685Z,5.18
2022-12-20T19:28:42.088Z,5.13
2022-12-20T19:31:17.322Z,5.07
2022-12-20T19:33:48.033Z,5.02
2022-12-20T19:36:17.613Z,4.98
2022-12-20T19:38:49.291Z,4.95
2022-12-20T19:41:15.883Z,4.92
2022-12-20T19:43:42.444Z,4.88
2022-12-20T19:46:09.975Z,4.87
2022-12-20T19:48:37.511Z,4.86
2022-12-20T19:51:06.459Z,4.85
2022-12-20T19:53:33.096Z,4.87
2022-12-20T19:55:59.638Z,4.86
2022-12-20T19:58:26.182Z,4.86
2022-12-20T20:00:53.535Z,4.87
2022-12-20T20:03:20.246Z,4.88
2022-12-20T20:05:47.228Z,4.88
2022-12-20T20:08:13.763Z,4.89
2022-12-20T20:10:40.286Z,4.88
2022-12-20T20:13:06.865Z,4.89
2022-12-20T20:15:33.383Z,4.89
2022-12-20T20:17:59.941Z,4.92
2022-12-20T20:20:26.572Z,4.93
2022-12-20T20:22:53.354Z,4.93
2022-12-20T20:25:19.803Z,4.94
2022-12-20T20:27:46.522Z,4.94
2022-12-20T20:30:14.151Z,4.95
2022-12-20T20:32:41.523Z,4.96
2022-12-20T20:35:09.404Z,4.95
2022-12-20T20:37:35.893Z,4.97
2022-12-20T20:40:02.383Z,4.97
2022-12-20T20:42:29.068Z,4.99
2022-12-20T20:44:55.693Z,5.00
2022-12-20T20:47:22.186Z,5.01
2022-12-20T20:49:48.670Z,5.04
2022-12-20T20:52:15.258Z,5.07
2022-12-20T20:54:41.860Z,5.10
2022-12-20T20:57:08.342Z,5.13
2022-12-20T20:59:34.914Z,5.15
2022-12-20T21:02:01.653Z,5.17
2022-12-20T21:04:28.429Z,5.19
2022-12-20T21:06:55.046Z,5.19
2022-12-20T21:09:21.668Z,5.21
2022-12-20T21:11:51.184Z,5.23
2022-12-20T21:14:31.596Z,5.24
2022-12-20T21:17:04.473Z,5.26
2022-12-20T21:19:31.056Z,5.29
2022-12-20T21:21:59.919Z,5.29
2022-12-20T21:24:28.995Z,5.30
2022-12-20T21:26:58.402Z,5.32
2022-12-20T21:29:24.852Z,5.30
2022-12-20T21:31:51.385Z,5.31
2022-12-20T21:34:18.089Z,5.34
2022-12-20T21:36:44.703Z,5.36
2022-12-20T21:39:13.205Z,5.37
2022-12-20T21:41:39.896Z,5.38
2022-12-20T21:44:06.658Z,5.39
2022-12-20T21:46:33.882Z,5.41
2022-12-20T21:49:00.602Z,5.43
2022-12-20T21:51:28.637Z,5.44
2022-12-20T21:53:57.467Z,5.45
2022-12-20T21:56:25.712Z,5.45
2022-12-20T21:58:52.237Z,5.39
2022-12-20T22:01:24.831Z,5.45
2022-12-20T22:03:55.006Z,5.49
2022-12-20T22:06:21.974Z,5.48
2022-12-20T22:08:48.763Z,5.49
2022-12-20T22:11:17.940Z,5.50
2022-12-20T22:13:45.304Z,5.50
2022-12-20T22:16:20.191Z,5.49
2022-12-20T22:18:51.849Z,5.50
2022-12-20T22:21:21.234Z,5.50
2022-12-20T22:23:48.443Z,5.50
2022-12-20T22:26:17.903Z,5.49
2022-12-20T22:28:47.495Z,5.50
2022-12-20T22:31:14.869Z,5.51
2022-12-20T22:33:42.005Z,5.51
2022-12-20T22:36:10.579Z,5.51
2022-12-20T22:38:37.251Z,5.53
2022-12-20T22:41:12.125Z,5.53
2022-12-20T22:43:40.136Z,5.55
2022-12-20T22:46:07.938Z,5.55
2022-12-20T22:48:34.499Z,5.57
2022-12-20T22:51:06.527Z,5.56
2022-12-20T22:53:34.212Z,5.55
2022-12-20T22:56:01.814Z,5.55
2022-12-20T22:58:29.276Z,5.56
2022-12-20T23:01:01.104Z,5.55
2022-12-20T23:03:28.974Z,5.58
2022-12-20T23:05:57.876Z,5.58
2022-12-20T23:08:25.745Z,5.60
2022-12-20T23:10:52.248Z,5.60
2022-12-20T23:13:18.799Z,5.58
2022-12-20T23:15:47.911Z,5.56
2022-12-20T23:18:14.481Z,5.54
2022-12-20T23:20:41.036Z,5.53
2022-12-20T23:23:09.353Z,5.52
2022-12-20T23:25:36.297Z,5.51
2022-12-20T23:28:02.755Z,5.50
2022-12-20T23:30:29.371Z,5.50
2022-12-20T23:32:55.939Z,5.51
2022-12-20T23:35:22.546Z,5.51
2022-12-20T23:37:49.124Z,5.50
2022-12-20T23:40:16.733Z,5.50
2022-12-20T23:42:44.209Z,5.51
2022-12-20T23:45:11.431Z,5.53
2022-12-20T23:47:37.985Z,5.51
2022-12-20T23:50:04.938Z,5.53
2022-12-20T23:52:31.485Z,5.54
2022-12-20T23:54:57.952Z,5.53
2022-12-20T23:57:24.553Z,5.53
2022-12-20T23:59:50.997Z,5.54
